Bakewell, United Kingdom
Current Conditions -  °F | °C
As of 11:50 PM on Friday 21 Nov 2014 (Local Time) from EGCC Reporting Station
Moderate Rain Moderate Rain  
Wind Chill: 44°   Ceiling: 3800
Heat Index: 48°   Visibility: 4mi
Dew Point: 46°   Wind: 10mph
Humidity: 93%   Direction: 140°SE
Pressure: 29.83"   Gusts: NA
Location:  53.21°N, 1.67°W
Report Text: EGCC 212350Z AUTO 14009KT 7000 RA FEW013/// SCT027/// BKN038/// //////CB 09/08 Q1010
Loading
Personal Weather Stations






























Interactive Weather Map New forecast layout! Learn more

10-Day Weather Forecast

Advertisements
Track Severe Weather on mobile